sensor_id;sensor_type;location;lat;lon;timestamp;temperature;humidity
16243;DHT22;11719;51.052;6.982;2023-09-19T00:00:46;21.40;99.90
16243;DHT22;11719;51.052;6.982;2023-09-19T00:03:15;21.20;99.90
16243;DHT22;11719;51.052;6.982;2023-09-19T00:05:41;21.20;99.90
16243;DHT22;11719;51.052;6.982;2023-09-19T00:08:10;21.20;99.90
16243;DHT22;11719;51.052;6.982;2023-09-19T00:10:35;21.20;99.90
16243;DHT22;11719;51.052;6.982;2023-09-19T00:13:03;21.10;99.90
16243;DHT22;11719;51.052;6.982;2023-09-19T00:15:44;21.10;99.90
16243;DHT22;11719;51.052;6.982;2023-09-19T00:18:14;21.20;99.90
16243;DHT22;11719;51.052;6.982;2023-09-19T00:20:44;21.30;99.90
16243;DHT22;11719;51.052;6.982;2023-09-19T00:23:13;21.30;99.90
16243;DHT22;11719;51.052;6.982;2023-09-19T00:25:39;21.40;99.90
16243;DHT22;11719;51.052;6.982;2023-09-19T00:28:05;21.30;99.90
16243;DHT22;11719;51.052;6.982;2023-09-19T00:30:33;21.30;99.90
16243;DHT22;11719;51.052;6.982;2023-09-19T00:33:00;21.30;99.90
16243;DHT22;11719;51.052;6.982;2023-09-19T00:35:27;21.30;99.90
16243;DHT22;11719;51.052;6.982;2023-09-19T00:37:53;21.40;99.90
16243;DHT22;11719;51.052;6.982;2023-09-19T00:40:19;21.40;99.90
16243;DHT22;11719;51.052;6.982;2023-09-19T00:42:47;21.30;99.90
16243;DHT22;11719;51.052;6.982;2023-09-19T00:45:15;21.30;99.90
16243;DHT22;11719;51.052;6.982;2023-09-19T00:47:48;21.30;99.90
16243;DHT22;11719;51.052;6.982;2023-09-19T00:50:16;21.30;99.90
16243;DHT22;11719;51.052;6.982;2023-09-19T00:52:46;21.40;99.90
16243;DHT22;11719;51.052;6.982;2023-09-19T00:55:14;21.40;99.90
16243;DHT22;11719;51.052;6.982;2023-09-19T00:57:42;21.40;99.90
16243;DHT22;11719;51.052;6.982;2023-09-19T01:00:10;21.30;99.90
16243;DHT22;11719;51.052;6.982;2023-09-19T01:02:44;21.20;99.90
16243;DHT22;11719;51.052;6.982;2023-09-19T01:05:10;21.20;99.90
16243;DHT22;11719;51.052;6.982;2023-09-19T01:07:38;21.20;99.90
16243;DHT22;11719;51.052;6.982;2023-09-19T01:10:06;21.30;99.90
16243;DHT22;11719;51.052;6.982;2023-09-19T01:13:01;21.20;99.90
16243;DHT22;11719;51.052;6.982;2023-09-19T01:18:27;21.30;99.90
16243;DHT22;11719;51.052;6.982;2023-09-19T01:21:23;21.40;99.90
16243;DHT22;11719;51.052;6.982;2023-09-19T01:29:47;21.30;99.90
16243;DHT22;11719;51.052;6.982;2023-09-19T01:32:17;21.30;99.90
16243;DHT22;11719;51.052;6.982;2023-09-19T01:34:55;21.30;99.90
16243;DHT22;11719;51.052;6.982;2023-09-19T01:37:29;21.20;99.90
16243;DHT22;11719;51.052;6.982;2023-09-19T01:40:06;21.20;99.90
16243;DHT22;11719;51.052;6.982;2023-09-19T01:48:43;21.20;99.90
16243;DHT22;11719;51.052;6.982;2023-09-19T01:54:24;21.10;99.90
16243;DHT22;11719;51.052;6.982;2023-09-19T01:59:35;21.10;99.90
16243;DHT22;11719;51.052;6.982;2023-09-19T02:02:06;21.10;99.90
16243;DHT22;11719;51.052;6.982;2023-09-19T02:04:34;21.00;99.90
16243;DHT22;11719;51.052;6.982;2023-09-19T02:07:00;21.00;99.90
16243;DHT22;11719;51.052;6.982;2023-09-19T02:09:26;21.00;99.90
16243;DHT22;11719;51.052;6.982;2023-09-19T02:11:52;21.00;99.90
16243;DHT22;11719;51.052;6.982;2023-09-19T02:14:21;20.90;99.90
16243;DHT22;11719;51.052;6.982;2023-09-19T02:16:48;20.80;99.90
16243;DHT22;11719;51.052;6.982;2023-09-19T02:19:16;20.80;99.90
16243;DHT22;11719;51.052;6.982;2023-09-19T02:21:42;20.70;99.90
16243;DHT22;11719;51.052;6.982;2023-09-19T02:24:09;20.60;99.90
16243;DHT22;11719;51.052;6.982;2023-09-19T02:26:35;20.60;99.90
16243;DHT22;11719;51.052;6.982;2023-09-19T02:29:02;20.70;99.90
16243;DHT22;11719;51.052;6.982;2023-09-19T02:31:30;20.70;99.90
16243;DHT22;11719;51.052;6.982;2023-09-19T02:33:56;20.70;99.90
16243;DHT22;11719;51.052;6.982;2023-09-19T02:36:23;20.80;99.90
16243;DHT22;11719;51.052;6.982;2023-09-19T02:38:50;20.80;99.90
16243;DHT22;11719;51.052;6.982;2023-09-19T02:41:15;20.80;99.90
16243;DHT22;11719;51.052;6.982;2023-09-19T02:43:41;20.80;99.90
16243;DHT22;11719;51.052;6.982;2023-09-19T02:46:08;20.80;99.90
16243;DHT22;11719;51.052;6.982;2023-09-19T02:48:34;20.80;99.90
16243;DHT22;11719;51.052;6.982;2023-09-19T02:51:02;20.80;99.90
16243;DHT22;11719;51.052;6.982;2023-09-19T02:53:31;20.70;99.90
16243;DHT22;11719;51.052;6.982;2023-09-19T02:55:57;20.80;99.90
16243;DHT22;11719;51.052;6.982;2023-09-19T02:58:24;20.70;99.90
16243;DHT22;11719;51.052;6.982;2023-09-19T03:00:50;20.80;99.90
16243;DHT22;11719;51.052;6.982;2023-09-19T03:03:17;20.80;99.90
16243;DHT22;11719;51.052;6.982;2023-09-19T03:05:43;20.70;99.90
16243;DHT22;11719;51.052;6.982;2023-09-19T03:08:14;20.60;99.90
16243;DHT22;11719;51.052;6.982;2023-09-19T03:10:42;20.60;99.90
16243;DHT22;11719;51.052;6.982;2023-09-19T03:13:09;20.70;99.90
16243;DHT22;11719;51.052;6.982;2023-09-19T03:15:36;20.60;99.90
16243;DHT22;11719;51.052;6.982;2023-09-19T03:18:05;20.60;99.90
16243;DHT22;11719;51.052;6.982;2023-09-19T03:20:31;20.60;99.90
16243;DHT22;11719;51.052;6.982;2023-09-19T03:22:57;20.70;99.90
16243;DHT22;11719;51.052;6.982;2023-09-19T03:25:23;20.70;99.90
16243;DHT22;11719;51.052;6.982;2023-09-19T03:27:50;20.80;99.90
16243;DHT22;11719;51.052;6.982;2023-09-19T03:30:16;20.80;99.90
16243;DHT22;11719;51.052;6.982;2023-09-19T03:32:48;20.70;99.90
16243;DHT22;11719;51.052;6.982;2023-09-19T03:35:16;20.60;99.90
16243;DHT22;11719;51.052;6.982;2023-09-19T03:37:42;20.70;99.90
16243;DHT22;11719;51.052;6.982;2023-09-19T03:40:10;20.70;99.90
16243;DHT22;11719;51.052;6.982;2023-09-19T03:42:40;20.70;99.90
16243;DHT22;11719;51.052;6.982;2023-09-19T03:45:08;20.80;99.90
16243;DHT22;11719;51.052;6.982;2023-09-19T03:47:38;20.70;99.90
16243;DHT22;11719;51.052;6.982;2023-09-19T03:50:06;20.80;99.90
16243;DHT22;11719;51.052;6.982;2023-09-19T03:52:34;20.70;99.90
16243;DHT22;11719;51.052;6.982;2023-09-19T03:55:00;20.70;99.90
16243;DHT22;11719;51.052;6.982;2023-09-19T03:57:28;20.70;99.90
16243;DHT22;11719;51.052;6.982;2023-09-19T03:59:53;20.80;99.90
16243;DHT22;11719;51.052;6.982;2023-09-19T04:02:20;20.80;99.90
16243;DHT22;11719;51.052;6.982;2023-09-19T04:04:50;20.80;99.90
16243;DHT22;11719;51.052;6.982;2023-09-19T04:07:17;20.80;99.90
16243;DHT22;11719;51.052;6.982;2023-09-19T04:09:44;20.80;99.90
16243;DHT22;11719;51.052;6.982;2023-09-19T04:12:13;20.70;99.90
16243;DHT22;11719;51.052;6.982;2023-09-19T04:14:42;20.60;99.90
16243;DHT22;11719;51.052;6.982;2023-09-19T04:17:09;20.50;99.90
16243;DHT22;11719;51.052;6.982;2023-09-19T04:19:35;20.60;99.90
16243;DHT22;11719;51.052;6.982;2023-09-19T04:22:01;20.50;99.90
16243;DHT22;11719;51.052;6.982;2023-09-19T04:24:29;20.50;99.90
16243;DHT22;11719;51.052;6.982;2023-09-19T04:26:54;20.60;99.90
16243;DHT22;11719;51.052;6.982;2023-09-19T04:29:20;20.50;99.90
16243;DHT22;11719;51.052;6.982;2023-09-19T04:31:46;20.50;99.90
16243;DHT22;11719;51.052;6.982;2023-09-19T04:34:12;20.50;99.90
16243;DHT22;11719;51.052;6.982;2023-09-19T04:36:41;20.50;99.90
16243;DHT22;11719;51.052;6.982;2023-09-19T04:39:07;20.40;99.90
16243;DHT22;11719;51.052;6.982;2023-09-19T04:41:33;20.30;99.90
16243;DHT22;11719;51.052;6.982;2023-09-19T04:44:00;20.20;99.90
16243;DHT22;11719;51.052;6.982;2023-09-19T04:46:26;20.20;99.90
16243;DHT22;11719;51.052;6.982;2023-09-19T04:48:52;20.30;99.90
16243;DHT22;11719;51.052;6.982;2023-09-19T04:51:17;20.20;99.90
16243;DHT22;11719;51.052;6.982;2023-09-19T04:53:44;20.20;99.90
16243;DHT22;11719;51.052;6.982;2023-09-19T04:56:10;20.30;99.90
16243;DHT22;11719;51.052;6.982;2023-09-19T04:58:37;20.20;99.90
16243;DHT22;11719;51.052;6.982;2023-09-19T05:01:02;20.20;99.90
16243;DHT22;11719;51.052;6.982;2023-09-19T05:03:28;20.20;99.90
16243;DHT22;11719;51.052;6.982;2023-09-19T05:05:54;20.10;99.90
16243;DHT22;11719;51.052;6.982;2023-09-19T05:08:20;20.00;99.90
16243;DHT22;11719;51.052;6.982;2023-09-19T05:10:47;20.20;99.90
16243;DHT22;11719;51.052;6.982;2023-09-19T05:13:14;20.20;99.90
16243;DHT22;11719;51.052;6.982;2023-09-19T05:15:40;20.20;99.90
16243;DHT22;11719;51.052;6.982;2023-09-19T05:18:06;20.40;99.90
16243;DHT22;11719;51.052;6.982;2023-09-19T05:20:32;20.40;99.90
16243;DHT22;11719;51.052;6.982;2023-09-19T05:23:01;20.30;99.90
16243;DHT22;11719;51.052;6.982;2023-09-19T05:25:33;20.40;99.90
16243;DHT22;11719;51.052;6.982;2023-09-19T05:28:07;20.40;99.90
16243;DHT22;11719;51.052;6.982;2023-09-19T05:30:35;20.50;99.90
16243;DHT22;11719;51.052;6.982;2023-09-19T05:33:02;20.30;99.90
16243;DHT22;11719;51.052;6.982;2023-09-19T05:35:30;20.40;99.90
16243;DHT22;11719;51.052;6.982;2023-09-19T05:37:56;20.40;99.90
16243;DHT22;11719;51.052;6.982;2023-09-19T05:40:24;20.40;99.90
16243;DHT22;11719;51.052;6.982;2023-09-19T05:42:51;20.40;99.90
16243;DHT22;11719;51.052;6.982;2023-09-19T05:45:17;20.50;99.90
16243;DHT22;11719;51.052;6.982;2023-09-19T05:47:48;20.60;99.90
16243;DHT22;11719;51.052;6.982;2023-09-19T05:50:16;20.60;99.90
16243;DHT22;11719;51.052;6.982;2023-09-19T05:52:50;20.50;99.90
16243;DHT22;11719;51.052;6.982;2023-09-19T05:55:17;20.40;99.90
16243;DHT22;11719;51.052;6.982;2023-09-19T05:57:43;20.40;99.90
16243;DHT22;11719;51.052;6.982;2023-09-19T06:00:15;20.40;99.90
16243;DHT22;11719;51.052;6.982;2023-09-19T06:02:43;20.50;99.90
16243;DHT22;11719;51.052;6.982;2023-09-19T06:05:10;20.50;99.90
16243;DHT22;11719;51.052;6.982;2023-09-19T06:07:37;20.50;99.90
16243;DHT22;11719;51.052;6.982;2023-09-19T06:10:06;20.50;99.90
16243;DHT22;11719;51.052;6.982;2023-09-19T06:12:32;20.20;99.90
16243;DHT22;11719;51.052;6.982;2023-09-19T06:15:04;20.20;99.90
16243;DHT22;11719;51.052;6.982;2023-09-19T06:17:46;20.20;99.90
16243;DHT22;11719;51.052;6.982;2023-09-19T06:20:14;20.40;99.90
16243;DHT22;11719;51.052;6.982;2023-09-19T06:22:45;20.40;99.90
16243;DHT22;11719;51.052;6.982;2023-09-19T06:25:12;20.50;99.90
16243;DHT22;11719;51.052;6.982;2023-09-19T06:27:48;20.40;99.90
16243;DHT22;11719;51.052;6.982;2023-09-19T06:30:20;20.50;99.90
16243;DHT22;11719;51.052;6.982;2023-09-19T06:32:48;20.50;99.90
16243;DHT22;11719;51.052;6.982;2023-09-19T06:35:15;20.40;99.90
16243;DHT22;11719;51.052;6.982;2023-09-19T06:37:42;20.60;99.90
16243;DHT22;11719;51.052;6.982;2023-09-19T06:40:12;20.50;99.90
16243;DHT22;11719;51.052;6.982;2023-09-19T06:42:49;20.50;99.90
16243;DHT22;11719;51.052;6.982;2023-09-19T06:45:16;20.50;99.90
16243;DHT22;11719;51.052;6.982;2023-09-19T06:47:45;20.50;99.90
16243;DHT22;11719;51.052;6.982;2023-09-19T06:50:15;20.50;99.90
16243;DHT22;11719;51.052;6.982;2023-09-19T06:52:44;20.40;99.90
16243;DHT22;11719;51.052;6.982;2023-09-19T06:55:12;20.40;99.90
16243;DHT22;11719;51.052;6.982;2023-09-19T06:57:42;20.40;99.90
16243;DHT22;11719;51.052;6.982;2023-09-19T07:00:10;20.20;99.90
16243;DHT22;11719;51.052;6.982;2023-09-19T07:03:01;20.20;99.90
16243;DHT22;11719;51.052;6.982;2023-09-19T07:05:34;20.00;99.90
16243;DHT22;11719;51.052;6.982;2023-09-19T07:08:09;20.00;99.90
16243;DHT22;11719;51.052;6.982;2023-09-19T07:10:38;20.00;99.90
16243;DHT22;11719;51.052;6.982;2023-09-19T07:13:14;20.00;99.90
16243;DHT22;11719;51.052;6.982;2023-09-19T07:15:43;20.00;99.90
16243;DHT22;11719;51.052;6.982;2023-09-19T07:18:13;20.10;99.90
16243;DHT22;11719;51.052;6.982;2023-09-19T07:20:41;20.10;99.90
16243;DHT22;11719;51.052;6.982;2023-09-19T07:23:14;20.20;99.90
16243;DHT22;11719;51.052;6.982;2023-09-19T07:25:46;20.20;99.90
16243;DHT22;11719;51.052;6.982;2023-09-19T07:28:12;20.10;99.90
16243;DHT22;11719;51.052;6.982;2023-09-19T07:30:38;20.20;99.90
16243;DHT22;11719;51.052;6.982;2023-09-19T07:33:05;20.00;99.90
16243;DHT22;11719;51.052;6.982;2023-09-19T07:35:31;20.10;99.90
16243;DHT22;11719;51.052;6.982;2023-09-19T07:37:57;20.10;99.90
16243;DHT22;11719;51.052;6.982;2023-09-19T07:40:27;20.30;99.90
16243;DHT22;11719;51.052;6.982;2023-09-19T07:42:55;20.20;99.90
16243;DHT22;11719;51.052;6.982;2023-09-19T07:45:21;20.20;99.90
16243;DHT22;11719;51.052;6.982;2023-09-19T07:47:49;20.30;99.90
16243;DHT22;11719;51.052;6.982;2023-09-19T07:50:17;20.20;99.90
16243;DHT22;11719;51.052;6.982;2023-09-19T07:52:47;20.30;99.90
16243;DHT22;11719;51.052;6.982;2023-09-19T07:55:13;20.30;99.90
16243;DHT22;11719;51.052;6.982;2023-09-19T07:57:43;20.40;99.90
16243;DHT22;11719;51.052;6.982;2023-09-19T08:00:10;20.40;99.90
16243;DHT22;11719;51.052;6.982;2023-09-19T08:02:37;20.40;99.90
16243;DHT22;11719;51.052;6.982;2023-09-19T08:05:08;20.40;99.90
16243;DHT22;11719;51.052;6.982;2023-09-19T08:07:38;20.50;99.90
16243;DHT22;11719;51.052;6.982;2023-09-19T08:10:07;20.50;99.90
16243;DHT22;11719;51.052;6.982;2023-09-19T08:12:34;20.40;99.90
16243;DHT22;11719;51.052;6.982;2023-09-19T08:15:15;20.50;99.90
16243;DHT22;11719;51.052;6.982;2023-09-19T08:17:41;20.50;99.90
16243;DHT22;11719;51.052;6.982;2023-09-19T08:20:09;20.50;99.90
16243;DHT22;11719;51.052;6.982;2023-09-19T08:22:50;20.60;99.90
16243;DHT22;11719;51.052;6.982;2023-09-19T08:25:23;20.50;99.90
16243;DHT22;11719;51.052;6.982;2023-09-19T08:27:51;20.50;99.90
16243;DHT22;11719;51.052;6.982;2023-09-19T08:30:21;20.50;99.90
16243;DHT22;11719;51.052;6.982;2023-09-19T08:32:50;20.50;99.90
16243;DHT22;11719;51.052;6.982;2023-09-19T08:35:16;20.60;99.90
16243;DHT22;11719;51.052;6.982;2023-09-19T08:37:43;20.60;99.90
16243;DHT22;11719;51.052;6.982;2023-09-19T08:40:11;20.70;99.90
16243;DHT22;11719;51.052;6.982;2023-09-19T08:42:55;20.90;99.90
16243;DHT22;11719;51.052;6.982;2023-09-19T08:45:23;20.70;99.90
16243;DHT22;11719;51.052;6.982;2023-09-19T08:50:56;20.70;99.90
16243;DHT22;11719;51.052;6.982;2023-09-19T08:56:12;20.70;99.90
16243;DHT22;11719;51.052;6.982;2023-09-19T08:59:05;20.60;99.90
16243;DHT22;11719;51.052;6.982;2023-09-19T09:01:35;20.70;99.90
16243;DHT22;11719;51.052;6.982;2023-09-19T09:04:03;20.70;99.90
16243;DHT22;11719;51.052;6.982;2023-09-19T09:06:29;20.70;99.90
16243;DHT22;11719;51.052;6.982;2023-09-19T09:08:55;20.80;99.90
16243;DHT22;11719;51.052;6.982;2023-09-19T09:11:22;20.80;99.90
16243;DHT22;11719;51.052;6.982;2023-09-19T09:13:50;20.80;99.90
16243;DHT22;11719;51.052;6.982;2023-09-19T09:16:16;20.80;99.90
16243;DHT22;11719;51.052;6.982;2023-09-19T09:18:47;20.80;99.90
16243;DHT22;11719;51.052;6.982;2023-09-19T09:21:20;20.80;99.90
16243;DHT22;11719;51.052;6.982;2023-09-19T09:23:48;20.70;99.90
16243;DHT22;11719;51.052;6.982;2023-09-19T09:26:15;20.70;99.90
16243;DHT22;11719;51.052;6.982;2023-09-19T09:28:45;20.70;99.90
16243;DHT22;11719;51.052;6.982;2023-09-19T09:31:23;20.80;99.90
16243;DHT22;11719;51.052;6.982;2023-09-19T09:33:56;20.80;99.90
16243;DHT22;11719;51.052;6.982;2023-09-19T09:36:37;20.80;99.90
16243;DHT22;11719;51.052;6.982;2023-09-19T09:39:04;20.80;99.90
16243;DHT22;11719;51.052;6.982;2023-09-19T09:41:50;20.80;99.90
16243;DHT22;11719;51.052;6.982;2023-09-19T09:44:18;20.90;99.90
16243;DHT22;11719;51.052;6.982;2023-09-19T09:46:46;20.90;99.90
16243;DHT22;11719;51.052;6.982;2023-09-19T09:49:26;20.90;99.90
16243;DHT22;11719;51.052;6.982;2023-09-19T09:52:07;20.90;99.90
16243;DHT22;11719;51.052;6.982;2023-09-19T09:54:35;20.90;99.90
16243;DHT22;11719;51.052;6.982;2023-09-19T09:57:09;20.90;99.90
16243;DHT22;11719;51.052;6.982;2023-09-19T09:59:49;20.90;99.90
16243;DHT22;11719;51.052;6.982;2023-09-19T10:02:24;20.90;99.90
16243;DHT22;11719;51.052;6.982;2023-09-19T10:04:57;20.90;99.90
16243;DHT22;11719;51.052;6.982;2023-09-19T10:07:40;20.80;99.90
16243;DHT22;11719;51.052;6.982;2023-09-19T10:10:13;20.90;99.90
16243;DHT22;11719;51.052;6.982;2023-09-19T10:12:44;20.90;99.90
16243;DHT22;11719;51.052;6.982;2023-09-19T10:15:18;20.80;99.90
16243;DHT22;11719;51.052;6.982;2023-09-19T10:17:52;20.80;99.90
16243;DHT22;11719;51.052;6.982;2023-09-19T10:20:22;20.90;99.90
16243;DHT22;11719;51.052;6.982;2023-09-19T10:22:58;20.90;99.90
16243;DHT22;11719;51.052;6.982;2023-09-19T10:25:28;20.90;99.90
16243;DHT22;11719;51.052;6.982;2023-09-19T10:28:00;20.90;99.90
16243;DHT22;11719;51.052;6.982;2023-09-19T10:30:31;21.00;99.90
16243;DHT22;11719;51.052;6.982;2023-09-19T10:33:04;21.10;99.90
16243;DHT22;11719;51.052;6.982;2023-09-19T10:35:32;21.20;99.90
16243;DHT22;11719;51.052;6.982;2023-09-19T10:38:01;21.20;99.90
16243;DHT22;11719;51.052;6.982;2023-09-19T10:40:30;21.20;99.90
16243;DHT22;11719;51.052;6.982;2023-09-19T10:43:03;21.20;99.90
16243;DHT22;11719;51.052;6.982;2023-09-19T10:45:34;21.20;99.90
16243;DHT22;11719;51.052;6.982;2023-09-19T10:48:04;21.20;99.90
16243;DHT22;11719;51.052;6.982;2023-09-19T10:51:22;21.30;99.90
16243;DHT22;11719;51.052;6.982;2023-09-19T10:53:54;21.30;99.90
16243;DHT22;11719;51.052;6.982;2023-09-19T10:56:32;21.40;99.90
16243;DHT22;11719;51.052;6.982;2023-09-19T10:59:11;21.40;99.90
16243;DHT22;11719;51.052;6.982;2023-09-19T11:01:46;21.40;99.90
16243;DHT22;11719;51.052;6.982;2023-09-19T11:09:49;21.40;99.90
16243;DHT22;11719;51.052;6.982;2023-09-19T11:15:07;21.50;99.90
16243;DHT22;11719;51.052;6.982;2023-09-19T11:30:52;21.60;99.90
16243;DHT22;11719;51.052;6.982;2023-09-19T11:33:29;21.60;99.90
16243;DHT22;11719;51.052;6.982;2023-09-19T11:36:16;21.60;99.90
16243;DHT22;11719;51.052;6.982;2023-09-19T11:46:33;21.60;99.90
16243;DHT22;11719;51.052;6.982;2023-09-19T11:49:09;21.60;99.90
16243;DHT22;11719;51.052;6.982;2023-09-19T11:51:43;21.70;99.90
16243;DHT22;11719;51.052;6.982;2023-09-19T11:54:13;21.70;99.90
16243;DHT22;11719;51.052;6.982;2023-09-19T11:56:56;21.70;99.90
16243;DHT22;11719;51.052;6.982;2023-09-19T11:59:28;21.70;99.90
16243;DHT22;11719;51.052;6.982;2023-09-19T12:02:05;21.70;99.90
16243;DHT22;11719;51.052;6.982;2023-09-19T12:04:38;21.70;99.90
16243;DHT22;11719;51.052;6.982;2023-09-19T12:07:13;21.80;99.90
16243;DHT22;11719;51.052;6.982;2023-09-19T12:09:47;21.80;99.90
16243;DHT22;11719;51.052;6.982;2023-09-19T12:12:26;21.70;99.90
16243;DHT22;11719;51.052;6.982;2023-09-19T12:15:01;21.70;99.90
16243;DHT22;11719;51.052;6.982;2023-09-19T12:17:39;21.70;99.90
16243;DHT22;11719;51.052;6.982;2023-09-19T12:20:10;21.70;99.90
16243;DHT22;11719;51.052;6.982;2023-09-19T12:22:41;21.80;99.90
16243;DHT22;11719;51.052;6.982;2023-09-19T12:25:09;21.80;99.90
16243;DHT22;11719;51.052;6.982;2023-09-19T12:27:47;21.80;99.90
16243;DHT22;11719;51.052;6.982;2023-09-19T12:30:28;21.90;99.90
16243;DHT22;11719;51.052;6.982;2023-09-19T12:32:59;21.90;99.90
16243;DHT22;11719;51.052;6.982;2023-09-19T12:35:44;21.90;99.90
16243;DHT22;11719;51.052;6.982;2023-09-19T12:38:48;22.00;99.90
16243;DHT22;11719;51.052;6.982;2023-09-19T12:41:14;22.00;99.90
16243;DHT22;11719;51.052;6.982;2023-09-19T12:43:41;22.00;99.90
16243;DHT22;11719;51.052;6.982;2023-09-19T12:46:07;22.00;99.90
16243;DHT22;11719;51.052;6.982;2023-09-19T12:48:34;22.00;99.90
16243;DHT22;11719;51.052;6.982;2023-09-19T12:53:41;22.10;99.90
16243;DHT22;11719;51.052;6.982;2023-09-19T12:56:12;22.10;99.90
16243;DHT22;11719;51.052;6.982;2023-09-19T12:58:58;22.10;99.90
16243;DHT22;11719;51.052;6.982;2023-09-19T13:01:29;22.20;99.90
16243;DHT22;11719;51.052;6.982;2023-09-19T13:04:15;22.20;99.90
16243;DHT22;11719;51.052;6.982;2023-09-19T13:06:45;22.20;99.90
16243;DHT22;11719;51.052;6.982;2023-09-19T13:09:14;22.20;99.90
16243;DHT22;11719;51.052;6.982;2023-09-19T13:11:46;22.30;99.90
16243;DHT22;11719;51.052;6.982;2023-09-19T13:14:26;22.30;99.90
16243;DHT22;11719;51.052;6.982;2023-09-19T13:17:03;22.30;99.90
16243;DHT22;11719;51.052;6.982;2023-09-19T13:22:38;22.50;99.90
16243;DHT22;11719;51.052;6.982;2023-09-19T13:25:18;22.70;99.90
16243;DHT22;11719;51.052;6.982;2023-09-19T13:27:55;22.80;99.90
16243;DHT22;11719;51.052;6.982;2023-09-19T13:30:26;22.90;99.90
16243;DHT22;11719;51.052;6.982;2023-09-19T13:33:07;22.90;99.90
16243;DHT22;11719;51.052;6.982;2023-09-19T13:35:35;23.00;99.90
16243;DHT22;11719;51.052;6.982;2023-09-19T13:38:08;22.80;99.90
16243;DHT22;11719;51.052;6.982;2023-09-19T13:40:41;22.90;99.90
16243;DHT22;11719;51.052;6.982;2023-09-19T13:43:10;22.80;99.90
16243;DHT22;11719;51.052;6.982;2023-09-19T13:45:37;22.90;99.90
16243;DHT22;11719;51.052;6.982;2023-09-19T13:48:04;22.90;99.90
16243;DHT22;11719;51.052;6.982;2023-09-19T13:50:30;22.80;99.90
16243;DHT22;11719;51.052;6.982;2023-09-19T13:52:57;22.80;99.90
16243;DHT22;11719;51.052;6.982;2023-09-19T13:55:23;22.80;99.90
16243;DHT22;11719;51.052;6.982;2023-09-19T13:57:50;22.70;99.90
16243;DHT22;11719;51.052;6.982;2023-09-19T14:00:20;22.60;99.90
16243;DHT22;11719;51.052;6.982;2023-09-19T14:02:50;22.60;99.90
16243;DHT22;11719;51.052;6.982;2023-09-19T14:05:17;22.50;99.90
16243;DHT22;11719;51.052;6.982;2023-09-19T14:07:44;22.50;99.90
16243;DHT22;11719;51.052;6.982;2023-09-19T14:10:11;22.50;99.90
16243;DHT22;11719;51.052;6.982;2023-09-19T14:12:38;22.50;99.90
16243;DHT22;11719;51.052;6.982;2023-09-19T14:15:07;22.40;99.90
16243;DHT22;11719;51.052;6.982;2023-09-19T14:17:34;22.40;99.90
16243;DHT22;11719;51.052;6.982;2023-09-19T14:19:59;22.30;99.90
16243;DHT22;11719;51.052;6.982;2023-09-19T14:22:25;22.30;99.90
16243;DHT22;11719;51.052;6.982;2023-09-19T14:24:52;22.30;99.90
16243;DHT22;11719;51.052;6.982;2023-09-19T14:27:18;22.30;99.90
16243;DHT22;11719;51.052;6.982;2023-09-19T14:29:44;22.30;99.90
16243;DHT22;11719;51.052;6.982;2023-09-19T14:32:10;22.30;99.90
16243;DHT22;11719;51.052;6.982;2023-09-19T14:34:42;22.20;99.90
16243;DHT22;11719;51.052;6.982;2023-09-19T14:37:09;22.20;99.90
16243;DHT22;11719;51.052;6.982;2023-09-19T14:39:40;22.20;99.90
16243;DHT22;11719;51.052;6.982;2023-09-19T14:42:10;22.20;99.90
16243;DHT22;11719;51.052;6.982;2023-09-19T14:44:36;22.20;99.90
16243;DHT22;11719;51.052;6.982;2023-09-19T14:47:03;22.10;99.90
16243;DHT22;11719;51.052;6.982;2023-09-19T14:49:34;22.10;99.90
16243;DHT22;11719;51.052;6.982;2023-09-19T14:52:00;22.10;99.90
16243;DHT22;11719;51.052;6.982;2023-09-19T14:54:30;22.10;99.90
16243;DHT22;11719;51.052;6.982;2023-09-19T14:56:56;22.10;99.90
16243;DHT22;11719;51.052;6.982;2023-09-19T14:59:33;22.10;99.90
16243;DHT22;11719;51.052;6.982;2023-09-19T15:02:02;22.20;99.90
16243;DHT22;11719;51.052;6.982;2023-09-19T15:04:32;22.20;99.90
16243;DHT22;11719;51.052;6.982;2023-09-19T15:06:59;22.20;99.90
16243;DHT22;11719;51.052;6.982;2023-09-19T15:09:26;22.20;99.90
16243;DHT22;11719;51.052;6.982;2023-09-19T15:11:59;22.20;99.90
16243;DHT22;11719;51.052;6.982;2023-09-19T15:14:25;22.10;99.90
16243;DHT22;11719;51.052;6.982;2023-09-19T15:16:51;22.20;99.90
16243;DHT22;11719;51.052;6.982;2023-09-19T15:19:16;22.10;99.90
16243;DHT22;11719;51.052;6.982;2023-09-19T15:21:43;22.10;99.90
16243;DHT22;11719;51.052;6.982;2023-09-19T15:24:09;22.10;99.90
16243;DHT22;11719;51.052;6.982;2023-09-19T15:26:37;22.10;99.90
16243;DHT22;11719;51.052;6.982;2023-09-19T15:29:08;22.10;99.90
16243;DHT22;11719;51.052;6.982;2023-09-19T15:31:35;22.00;99.90
16243;DHT22;11719;51.052;6.982;2023-09-19T15:34:05;22.00;99.90
16243;DHT22;11719;51.052;6.982;2023-09-19T15:36:34;22.00;99.90
16243;DHT22;11719;51.052;6.982;2023-09-19T15:39:05;22.10;99.90
16243;DHT22;11719;51.052;6.982;2023-09-19T15:41:36;22.10;99.90
16243;DHT22;11719;51.052;6.982;2023-09-19T15:44:11;22.00;99.90
16243;DHT22;11719;51.052;6.982;2023-09-19T15:46:39;22.00;99.90
16243;DHT22;11719;51.052;6.982;2023-09-19T15:49:05;22.00;99.90
16243;DHT22;11719;51.052;6.982;2023-09-19T15:51:31;22.00;99.90
16243;DHT22;11719;51.052;6.982;2023-09-19T15:53:57;22.00;99.90
16243;DHT22;11719;51.052;6.982;2023-09-19T15:56:25;22.00;99.90
16243;DHT22;11719;51.052;6.982;2023-09-19T15:58:54;22.00;99.90
16243;DHT22;11719;51.052;6.982;2023-09-19T16:01:21;22.00;99.90
16243;DHT22;11719;51.052;6.982;2023-09-19T16:03:53;22.00;99.90
16243;DHT22;11719;51.052;6.982;2023-09-19T16:06:23;21.90;99.90
16243;DHT22;11719;51.052;6.982;2023-09-19T16:08:55;21.90;99.90
16243;DHT22;11719;51.052;6.982;2023-09-19T16:11:26;22.00;99.90
16243;DHT22;11719;51.052;6.982;2023-09-19T16:13:53;22.00;99.90
16243;DHT22;11719;51.052;6.982;2023-09-19T16:16:20;22.10;99.90
16243;DHT22;11719;51.052;6.982;2023-09-19T16:18:49;22.10;99.90
16243;DHT22;11719;51.052;6.982;2023-09-19T16:21:23;22.00;99.90
16243;DHT22;11719;51.052;6.982;2023-09-19T16:23:52;22.00;99.90
16243;DHT22;11719;51.052;6.982;2023-09-19T16:26:22;22.00;99.90
16243;DHT22;11719;51.052;6.982;2023-09-19T16:28:56;22.00;99.90
16243;DHT22;11719;51.052;6.982;2023-09-19T16:31:27;22.00;99.90
16243;DHT22;11719;51.052;6.982;2023-09-19T16:33:53;22.00;99.90
16243;DHT22;11719;51.052;6.982;2023-09-19T16:36:20;22.00;99.90
16243;DHT22;11719;51.052;6.982;2023-09-19T16:38:47;22.00;99.90
16243;DHT22;11719;51.052;6.982;2023-09-19T16:41:14;22.00;99.90
16243;DHT22;11719;51.052;6.982;2023-09-19T16:43:41;22.00;99.90
16243;DHT22;11719;51.052;6.982;2023-09-19T16:46:09;22.00;99.90
16243;DHT22;11719;51.052;6.982;2023-09-19T16:48:40;22.00;99.90